Time;durP1;ratioP1;P1;durP2;ratioP2;P2;SDS_P1;SDS_P2;PMS_P1;PMS_P2;Temp;Humidity;BMP_temperature;BMP_pressure;BME280_temperature;BME280_humidity;BME280_pressure;Samples;Min_cycle;Max_cycle;Signal;HPM_P1;HPM_P2
2021/04/02 00:00:20;;;;;;;4.80;4.13;;;;;;;7.59;65.71;101557.00;5052108;28;20304;-64
2021/04/02 00:02:46;;;;;;;5.10;3.73;;;;;;;7.53;65.73;101554.56;5051539;28;20198;-67
2021/04/02 00:05:14;;;;;;;6.23;4.53;;;;;;;7.48;66.14;101556.56;5051763;28;20692;-64
2021/04/02 00:07:41;;;;;;;6.37;4.20;;;;;;;7.47;66.34;101546.88;5051345;28;20210;-64
2021/04/02 00:10:10;;;;;;;5.23;3.93;;;;;;;7.44;66.52;101551.41;5050539;28;20248;-66
2021/04/02 00:12:36;;;;;;;5.87;4.67;;;;;;;7.41;66.58;101544.44;5050857;28;20205;-65
2021/04/02 00:15:08;;;;;;;5.43;4.40;;;;;;;7.35;66.40;101547.28;5051644;28;20223;-64
2021/04/02 00:17:35;;;;;;;6.00;4.30;;;;;;;7.29;66.72;101552.81;5051273;28;20208;-65
2021/04/02 00:20:01;;;;;;;5.17;4.10;;;;;;;7.26;66.28;101555.59;5050598;28;20317;-65
2021/04/02 00:22:27;;;;;;;4.60;3.60;;;;;;;7.24;66.58;101546.81;5051994;28;20209;-65
2021/04/02 00:24:53;;;;;;;4.40;3.60;;;;;;;7.22;66.82;101552.16;5051451;28;20316;-64
2021/04/02 00:27:19;;;;;;;5.40;3.90;;;;;;;7.20;67.11;101542.53;5051997;28;20247;-64
2021/04/02 00:29:45;;;;;;;3.53;3.23;;;;;;;7.19;66.96;101551.41;5051392;28;20204;-65
2021/04/02 00:32:11;;;;;;;3.77;3.40;;;;;;;7.17;67.11;101553.22;5048702;28;20205;-63
2021/04/02 00:34:38;;;;;;;6.97;3.73;;;;;;;7.11;66.86;101543.75;5051427;28;20221;-65
2021/04/02 00:37:05;;;;;;;4.97;3.90;;;;;;;7.08;67.14;101543.84;5052242;28;20254;-64
2021/04/02 00:39:31;;;;;;;4.20;3.00;;;;;;;7.06;66.81;101537.72;5051330;28;20202;-64
2021/04/02 00:41:57;;;;;;;4.13;3.17;;;;;;;7.05;66.79;101543.06;5050841;28;20254;-64
2021/04/02 00:44:23;;;;;;;3.80;3.40;;;;;;;7.04;66.99;101542.22;5050924;28;20577;-66
2021/04/02 00:46:49;;;;;;;4.47;3.43;;;;;;;7.03;67.09;101542.25;5051002;28;20209;-65
2021/04/02 00:49:15;;;;;;;4.27;3.63;;;;;;;7.02;67.27;101543.19;5051365;28;20197;-66
2021/04/02 00:51:42;;;;;;;5.13;4.07;;;;;;;7.01;66.99;101547.59;5050483;28;20402;-64
2021/04/02 00:54:08;;;;;;;4.73;3.90;;;;;;;6.96;67.00;101536.34;5051027;28;20527;-63
2021/04/02 00:56:34;;;;;;;4.83;4.30;;;;;;;6.94;66.93;101536.38;5050942;28;20201;-63
2021/04/02 00:59:00;;;;;;;5.43;4.27;;;;;;;6.92;66.82;101538.22;5051190;28;20607;-65
2021/04/02 01:01:26;;;;;;;5.03;3.83;;;;;;;6.89;67.04;101543.59;5050226;28;20449;-65
2021/04/02 01:03:54;;;;;;;5.60;4.40;;;;;;;6.86;67.01;101543.69;5048109;28;20202;-64
2021/04/02 01:06:23;;;;;;;4.90;4.17;;;;;;;6.82;67.23;101544.72;5050223;28;20273;-64
2021/04/02 01:08:50;;;;;;;4.90;4.40;;;;;;;6.78;66.63;101544.91;5050557;28;20251;-65
2021/04/02 01:11:18;;;;;;;5.07;4.47;;;;;;;6.73;66.89;101546.81;5049853;28;20249;-64
2021/04/02 01:13:46;;;;;;;6.90;5.50;;;;;;;6.66;67.46;101537.34;5042247;28;20229;-69
2021/04/02 01:16:15;;;;;;;6.07;4.83;;;;;;;6.59;67.26;101542.00;5050113;28;20208;-64
2021/04/02 01:18:47;;;;;;;8.30;6.33;;;;;;;6.52;67.30;101541.31;5050736;28;20209;-64
2021/04/02 01:21:20;;;;;;;4.93;4.10;;;;;;;6.47;67.63;101535.28;5050788;28;20324;-66
2021/04/02 01:24:16;;;;;;;3.90;3.57;;;;;;;6.46;67.69;101543.28;5050151;28;20695;-65
2021/04/02 01:27:06;;;;;;;4.40;4.00;;;;;;;6.44;67.76;101534.53;5049972;28;20203;-67
2021/04/02 01:29:43;;;;;;;3.60;3.30;;;;;;;6.44;67.97;101537.19;5048222;28;20217;-61
2021/04/02 01:32:12;;;;;;;4.03;3.37;;;;;;;6.40;68.25;101539.06;5050039;28;20281;-66
2021/04/02 01:34:42;;;;;;;3.50;3.20;;;;;;;6.39;68.47;101531.19;5050712;28;20205;-65
2021/04/02 01:37:14;;;;;;;4.57;3.67;;;;;;;6.37;68.45;101533.00;5050547;28;20244;-66
2021/04/02 01:39:42;;;;;;;4.17;3.77;;;;;;;6.35;68.46;101537.47;5056823;28;20201;-66
2021/04/02 01:42:14;;;;;;;4.20;3.80;;;;;;;6.31;68.71;101546.41;5050287;28;20206;-65
2021/04/02 01:44:42;;;;;;;3.67;3.37;;;;;;;6.28;68.52;101539.44;5050820;28;20247;-65
2021/04/02 01:47:10;;;;;;;3.70;3.40;;;;;;;6.24;69.04;101541.34;5050553;28;20679;-65
2021/04/02 01:49:37;;;;;;;3.80;3.43;;;;;;;6.21;68.94;101538.78;5050675;28;20244;-65
2021/04/02 01:52:05;;;;;;;3.87;3.57;;;;;;;6.21;69.16;101545.84;5050422;28;20233;-66
2021/04/02 01:54:33;;;;;;;3.90;3.60;;;;;;;6.19;69.23;101543.25;5049923;28;20704;-65
2021/04/02 01:57:00;;;;;;;4.07;3.77;;;;;;;6.16;69.51;101548.63;5048405;28;20687;-66
2021/04/02 01:59:27;;;;;;;3.83;3.53;;;;;;;6.11;69.42;101550.53;5051157;28;20213;-65
2021/04/02 02:01:56;;;;;;;3.40;3.10;;;;;;;6.06;69.69;101554.25;5051386;28;20687;-65
2021/04/02 02:04:23;;;;;;;5.03;3.20;;;;;;;6.01;69.30;101548.22;5052822;28;20202;-65
2021/04/02 02:06:52;;;;;;;3.37;3.07;;;;;;;5.97;69.43;101551.88;5050833;28;20685;-66
2021/04/02 02:09:23;;;;;;;3.37;2.90;;;;;;;5.94;70.05;101547.53;5050008;28;20210;-66
2021/04/02 02:11:53;;;;;;;3.07;2.87;;;;;;;5.94;69.80;101539.59;5049214;28;20232;-67
2021/04/02 02:14:21;;;;;;;3.17;2.67;;;;;;;5.93;69.81;101545.81;5046775;28;20222;-65
2021/04/02 02:16:51;;;;;;;3.30;3.00;;;;;;;5.95;70.00;101551.06;5047947;28;20202;-65
2021/04/02 02:19:23;;;;;;;2.90;2.67;;;;;;;5.93;70.22;101549.31;5049808;28;20251;-64
2021/04/02 02:21:54;;;;;;;2.90;2.70;;;;;;;5.96;70.04;101547.50;5047313;28;20797;-65
2021/04/02 02:24:20;;;;;;;3.47;2.90;;;;;;;5.96;70.24;101548.38;5048701;28;20278;-65
2021/04/02 02:26:46;;;;;;;3.30;3.10;;;;;;;5.96;70.03;101553.66;5049836;28;20272;-68
2021/04/02 02:29:14;;;;;;;2.70;2.50;;;;;;;5.95;70.03;101546.63;5049950;28;20695;-65
2021/04/02 02:31:41;;;;;;;2.50;2.30;;;;;;;5.91;69.96;101555.59;5049658;28;20229;-66
2021/04/02 02:34:08;;;;;;;2.40;2.20;;;;;;;5.89;70.18;101552.13;5049409;28;20208;-67
2021/04/02 02:36:37;;;;;;;3.13;2.50;;;;;;;5.84;69.91;101554.84;5050064;28;20558;-65
2021/04/02 02:39:08;;;;;;;2.27;2.13;;;;;;;5.82;69.91;101550.53;5049529;28;20212;-65
2021/04/02 02:41:36;;;;;;;2.90;2.70;;;;;;;5.79;70.23;101555.91;5050919;28;20226;-65
2021/04/02 02:44:02;;;;;;;2.77;2.57;;;;;;;5.77;69.90;101561.22;5053567;28;20716;-66
2021/04/02 02:46:29;;;;;;;3.03;2.70;;;;;;;5.75;70.06;101551.59;5054459;28;20578;-65
2021/04/02 02:49:00;;;;;;;2.57;2.37;;;;;;;5.72;70.26;101562.28;5053653;28;20202;-65
2021/04/02 02:51:29;;;;;;;3.00;2.80;;;;;;;5.69;70.25;101565.88;5076722;22;20702;-63
2021/04/02 02:53:59;;;;;;;3.10;2.90;;;;;;;5.68;70.86;101569.44;5048981;28;20209;-64
2021/04/02 02:56:27;;;;;;;3.20;2.90;;;;;;;5.68;70.61;101569.44;5039335;28;20601;-63
2021/04/02 02:58:55;;;;;;;2.90;2.70;;;;;;;5.69;71.00;101572.94;5043769;28;20213;-64
2021/04/02 03:01:23;;;;;;;3.10;2.43;;;;;;;5.72;70.76;101571.09;5050145;28;20226;-63
2021/04/02 03:03:52;;;;;;;3.00;2.53;;;;;;;5.76;70.80;101572.69;5045660;28;20225;-63
2021/04/02 03:06:19;;;;;;;2.77;2.50;;;;;;;5.76;70.92;101577.13;5053146;28;20225;-63
2021/04/02 03:08:47;;;;;;;3.60;2.60;;;;;;;5.77;70.60;101569.16;5052433;28;20655;-64
2021/04/02 03:11:17;;;;;;;2.97;2.70;;;;;;;5.79;70.77;101562.03;5052947;28;20252;-64
2021/04/02 03:13:45;;;;;;;2.80;2.60;;;;;;;5.80;70.64;101569.06;5034867;28;20221;-63
2021/04/02 03:16:12;;;;;;;3.10;2.77;;;;;;;5.80;70.52;101558.50;5033273;28;20221;-63
2021/04/02 03:18:38;;;;;;;2.40;2.20;;;;;;;5.81;70.91;101562.00;5033674;28;20256;-63
2021/04/02 03:21:08;;;;;;;2.37;2.17;;;;;;;5.80;70.90;101554.97;5032698;28;20283;-63
2021/04/02 03:23:36;;;;;;;2.60;2.10;;;;;;;5.79;70.62;101554.13;5031857;28;20213;-63
2021/04/02 03:26:02;;;;;;;2.57;2.37;;;;;;;5.80;70.39;101553.22;5032243;28;20202;-64
2021/04/02 03:28:29;;;;;;;2.47;2.27;;;;;;;5.80;70.48;101550.56;5045245;28;20206;-64
2021/04/02 03:30:56;;;;;;;2.83;2.57;;;;;;;5.82;70.49;101555.81;5033808;28;20226;-63
2021/04/02 03:33:24;;;;;;;2.70;2.50;;;;;;;5.82;70.18;101553.16;5045148;28;20224;-63
2021/04/02 03:35:54;;;;;;;2.33;2.10;;;;;;;5.81;70.46;101560.22;5047367;28;20245;-63
2021/04/02 03:38:22;;;;;;;1.97;1.87;;;;;;;5.82;70.02;101561.09;5051712;28;20213;-63
2021/04/02 03:40:50;;;;;;;2.30;2.10;;;;;;;5.80;69.94;101569.06;5046228;28;20229;-64
2021/04/02 03:43:17;;;;;;;2.33;2.13;;;;;;;5.77;70.02;101561.22;5033054;28;20202;-64
2021/04/02 03:45:48;;;;;;;2.87;2.20;;;;;;;5.77;70.04;101569.16;5048177;28;20228;-63
2021/04/02 03:48:15;;;;;;;2.27;2.10;;;;;;;5.77;70.06;101568.28;5052399;28;20633;-64
2021/04/02 03:50:46;;;;;;;2.47;2.27;;;;;;;5.77;70.15;101581.50;5040036;28;20234;-64
2021/04/02 03:53:20;;;;;;;2.20;2.00;;;;;;;5.77;69.82;101584.16;5045506;28;20217;-64
2021/04/02 03:55:48;;;;;;;2.20;2.00;;;;;;;5.79;69.80;101579.69;5045236;28;20221;-63
2021/04/02 03:58:16;;;;;;;1.80;1.70;;;;;;;5.79;69.70;101577.03;5049789;28;20260;-64
2021/04/02 04:00:47;;;;;;;1.77;1.67;;;;;;;5.80;69.89;101589.34;5040774;28;20889;-64
2021/04/02 04:03:15;;;;;;;2.07;1.87;;;;;;;5.79;69.41;101582.31;5035336;28;20206;-64
2021/04/02 04:05:43;;;;;;;2.00;1.90;;;;;;;5.79;69.58;101572.63;5035274;28;20210;-63
2021/04/02 04:08:12;;;;;;;2.27;1.77;;;;;;;5.80;69.46;101571.72;5049789;28;20209;-64
2021/04/02 04:10:39;;;;;;;2.10;1.90;;;;;;;5.80;69.83;101573.50;5049866;28;20572;-63
2021/04/02 04:13:09;;;;;;;1.73;1.63;;;;;;;5.81;69.56;101575.22;5044798;28;20202;-63
2021/04/02 04:15:37;;;;;;;2.07;1.70;;;;;;;5.81;69.44;101583.16;5043181;28;20218;-64
2021/04/02 04:18:04;;;;;;;2.23;1.83;;;;;;;5.84;69.36;101580.44;5040215;28;20214;-64
2021/04/02 04:20:31;;;;;;;2.03;1.70;;;;;;;5.84;69.47;101585.72;5041044;28;20225;-64
2021/04/02 04:22:57;;;;;;;1.80;1.70;;;;;;;5.84;69.51;101577.78;5033297;28;20218;-64
2021/04/02 04:25:26;;;;;;;2.13;1.80;;;;;;;5.86;69.69;101570.69;5037043;28;20198;-64
2021/04/02 04:27:54;;;;;;;1.97;1.40;;;;;;;5.88;69.76;101568.84;5045281;28;20612;-64
2021/04/02 04:30:23;;;;;;;1.70;1.60;;;;;;;5.89;69.28;101575.91;5051430;28;20589;-64
2021/04/02 04:32:50;;;;;;;1.60;1.50;;;;;;;5.89;69.50;101571.50;5051499;28;20642;-64
2021/04/02 04:35:19;;;;;;;1.77;1.60;;;;;;;5.92;69.31;101573.16;5050438;28;20229;-63
2021/04/02 04:37:46;;;;;;;1.50;1.40;;;;;;;5.95;69.60;101573.06;5050830;28;20254;-64
2021/04/02 04:40:15;;;;;;;1.60;1.50;;;;;;;5.96;69.50;101560.72;5043702;28;20213;-64
2021/04/02 04:42:44;;;;;;;1.40;1.30;;;;;;;5.95;69.33;101559.84;5037596;28;20208;-64
2021/04/02 04:45:11;;;;;;;1.50;1.40;;;;;;;5.95;68.93;101565.13;5050306;28;20296;-64
2021/04/02 04:47:38;;;;;;;1.40;1.30;;;;;;;5.94;69.08;101555.47;5042366;28;20683;-64
2021/04/02 04:50:07;;;;;;;1.40;1.30;;;;;;;5.96;69.41;101561.59;5042832;28;20679;-64
2021/04/02 04:52:40;;;;;;;1.50;1.30;;;;;;;5.96;69.32;101553.66;5045582;28;20590;-64
2021/04/02 04:55:09;;;;;;;2.07;1.37;;;;;;;5.96;69.28;101548.38;5048188;28;20225;-64
2021/04/02 04:57:39;;;;;;;1.33;1.23;;;;;;;5.96;68.80;101548.38;5046410;28;20209;-64
2021/04/02 05:00:07;;;;;;;1.30;1.20;;;;;;;6.00;69.00;101554.44;5048726;28;20216;-63
2021/04/02 05:02:35;;;;;;;1.70;1.60;;;;;;;6.00;69.22;101550.00;5049051;28;20271;-64
2021/04/02 05:05:03;;;;;;;1.30;1.20;;;;;;;6.01;68.71;101557.03;5047353;28;20232;-64
2021/04/02 05:07:31;;;;;;;2.03;1.40;;;;;;;6.03;68.92;101563.16;5048651;28;20618;-64
2021/04/02 05:10:00;;;;;;;1.57;1.47;;;;;;;6.04;69.01;101553.44;5044509;28;20220;-64
2021/04/02 05:12:27;;;;;;;2.77;2.20;;;;;;;6.04;68.97;101551.66;5048227;28;20216;-64
2021/04/02 05:14:54;;;;;;;3.20;2.50;;;;;;;6.04;68.44;101556.94;5042801;28;20263;-64
2021/04/02 05:17:21;;;;;;;3.57;2.90;;;;;;;6.04;68.37;101558.72;5049759;28;20198;-64
2021/04/02 05:19:50;;;;;;;3.63;2.93;;;;;;;6.03;68.52;101554.34;5042327;28;20202;-66
2021/04/02 05:22:16;;;;;;;3.03;2.43;;;;;;;6.03;68.79;101552.56;5045551;28;20235;-63
2021/04/02 05:24:42;;;;;;;2.30;1.90;;;;;;;6.03;68.34;101557.84;5045784;28;20205;-63
2021/04/02 05:27:09;;;;;;;2.17;1.97;;;;;;;6.04;68.51;101564.88;5047832;28;20293;-63
2021/04/02 05:29:35;;;;;;;1.73;1.63;;;;;;;6.04;68.71;101567.53;5034858;28;20201;-64
2021/04/02 05:32:01;;;;;;;2.63;1.70;;;;;;;6.02;68.42;101558.75;5046425;28;20232;-64
2021/04/02 05:34:27;;;;;;;1.60;1.50;;;;;;;5.97;68.52;101570.38;5048583;28;20202;-64
2021/04/02 05:36:53;;;;;;;2.23;1.80;;;;;;;5.95;68.54;101566.91;5046918;28;20222;-63
2021/04/02 05:39:19;;;;;;;2.27;1.60;;;;;;;5.92;68.70;101571.38;5046460;28;20201;-64
2021/04/02 05:41:51;;;;;;;2.70;1.80;;;;;;;5.92;68.72;101578.44;5046559;28;20222;-64
2021/04/02 05:44:25;;;;;;;2.63;2.00;;;;;;;5.90;68.66;101583.81;5046003;28;20197;-64
2021/04/02 05:46:53;;;;;;;2.53;1.90;;;;;;;5.90;68.75;101586.44;5047569;28;20208;-64
2021/04/02 05:49:21;;;;;;;2.20;1.80;;;;;;;5.87;69.13;101581.22;5038300;28;20213;-64
2021/04/02 05:51:48;;;;;;;3.13;2.07;;;;;;;5.85;68.95;101583.03;5044156;28;20824;-64
2021/04/02 05:54:19;;;;;;;3.23;2.30;;;;;;;5.84;68.88;101572.50;5048033;28;20197;-64
2021/04/02 05:56:46;;;;;;;3.77;2.20;;;;;;;5.84;69.14;101578.66;5038094;28;20715;-64
2021/04/02 05:59:12;;;;;;;2.03;1.50;;;;;;;5.86;69.20;101578.59;5046606;28;20204;-64
2021/04/02 06:01:40;;;;;;;1.37;1.10;;;;;;;5.85;68.95;101583.03;5041555;28;20230;-63
2021/04/02 06:04:06;;;;;;;1.87;0.97;;;;;;;5.82;68.70;101577.81;5040095;28;20270;-65
2021/04/02 06:06:34;;;;;;;0.90;0.80;;;;;;;5.83;68.66;101592.78;5047298;28;20664;-64
2021/04/02 06:09:00;;;;;;;1.57;0.77;;;;;;;5.84;68.61;101594.50;5048674;28;20215;-64
2021/04/02 06:11:26;;;;;;;1.00;0.80;;;;;;;5.85;68.65;101598.03;5048129;28;20229;-64
2021/04/02 06:13:52;;;;;;;1.37;1.00;;;;;;;5.86;68.27;101592.69;5046150;28;20210;-64
2021/04/02 06:16:18;;;;;;;1.23;0.80;;;;;;;5.89;68.54;101597.06;5048595;28;20316;-64
2021/04/02 06:18:45;;;;;;;0.80;0.80;;;;;;;5.90;68.26;101586.44;5042371;28;20210;-64
2021/04/02 06:21:11;;;;;;;0.83;0.77;;;;;;;5.93;68.31;101580.19;5047484;28;20730;-64
2021/04/02 06:23:38;;;;;;;1.83;1.07;;;;;;;5.97;67.99;101573.03;5050317;28;20205;-64
2021/04/02 06:26:06;;;;;;;0.70;0.70;;;;;;;5.98;67.98;101567.69;5049340;28;20617;-64
2021/04/02 06:28:34;;;;;;;1.00;0.90;;;;;;;6.00;67.64;101570.28;5048757;28;20209;-64
2021/04/02 06:31:02;;;;;;;1.47;0.90;;;;;;;6.02;67.59;101566.69;5052877;28;20226;-64
2021/04/02 06:33:33;;;;;;;1.37;0.70;;;;;;;6.05;67.80;101569.25;5051303;28;20248;-64
2021/04/02 06:36:01;;;;;;;1.33;0.87;;;;;;;6.10;67.88;101577.91;5043027;28;20706;-64
2021/04/02 06:38:32;;;;;;;1.33;0.80;;;;;;;6.13;67.31;101583.09;5048592;28;20770;-64
2021/04/02 06:41:00;;;;;;;1.00;0.80;;;;;;;6.16;67.25;101582.16;5047453;28;20225;-62
2021/04/02 06:43:40;;;;;;;1.13;0.80;;;;;;;6.19;67.18;101584.69;5047713;28;20685;-64
2021/04/02 06:46:07;;;;;;;1.60;0.97;;;;;;;6.21;67.25;101583.75;5047236;28;20197;-64
2021/04/02 06:48:33;;;;;;;1.40;1.00;;;;;;;6.25;67.15;101587.16;5047646;28;20236;-66
2021/04/02 06:51:00;;;;;;;0.80;0.80;;;;;;;6.26;67.00;101583.63;5043391;28;20237;-64
2021/04/02 06:53:26;;;;;;;1.40;1.00;;;;;;;6.26;66.61;101579.19;5046101;28;20210;-64
2021/04/02 06:55:53;;;;;;;1.80;1.10;;;;;;;6.27;66.79;101591.47;5043049;28;20226;-64
2021/04/02 06:58:22;;;;;;;1.37;1.07;;;;;;;6.27;66.73;101593.25;5046552;28;20202;-62
2021/04/02 07:00:50;;;;;;;1.40;1.10;;;;;;;6.27;66.62;101594.13;5046997;28;20232;-64
2021/04/02 07:03:18;;;;;;;2.00;1.13;;;;;;;6.27;66.61;101599.41;5049982;28;20216;-64
2021/04/02 07:05:45;;;;;;;1.40;1.10;;;;;;;6.28;66.50;101595.00;5049140;28;20205;-63
2021/04/02 07:08:16;;;;;;;1.70;1.10;;;;;;;6.29;66.16;101591.44;5046696;28;20218;-63
2021/04/02 07:10:43;;;;;;;1.53;1.43;;;;;;;6.27;66.01;101586.19;5044653;28;20225;-63
2021/04/02 07:13:10;;;;;;;2.03;1.27;;;;;;;6.30;65.87;101579.06;5049054;28;20259;-63
2021/04/02 07:15:39;;;;;;;1.37;1.27;;;;;;;6.27;65.24;101580.03;5047461;28;20276;-63
2021/04/02 07:18:06;;;;;;;2.17;1.67;;;;;;;6.30;65.03;101582.59;5042730;28;20213;-63
2021/04/02 07:20:33;;;;;;;2.90;2.30;;;;;;;6.33;65.33;101589.56;5049656;28;20315;-63
2021/04/02 07:23:00;;;;;;;3.73;2.10;;;;;;;6.36;65.19;101585.06;5044143;28;20212;-63
2021/04/02 07:25:28;;;;;;;4.73;2.80;;;;;;;6.39;65.06;101589.38;5043731;28;20208;-64
2021/04/02 07:27:56;;;;;;;4.17;3.20;;;;;;;6.39;64.42;101587.59;5047502;28;20216;-64
2021/04/02 07:30:24;;;;;;;3.83;3.30;;;;;;;6.42;64.43;101595.47;5044603;28;20221;-64
2021/04/02 07:32:50;;;;;;;3.83;3.20;;;;;;;6.47;64.28;101590.00;5047925;28;20260;-63
2021/04/02 07:35:18;;;;;;;5.13;2.90;;;;;;;6.51;64.20;101591.63;5047360;28;20249;-66
2021/04/02 07:37:50;;;;;;;3.87;3.00;;;;;;;6.55;64.13;101593.28;5045478;28;20224;-63
2021/04/02 07:40:19;;;;;;;4.10;3.53;;;;;;;6.59;64.10;101593.13;5047329;28;20212;-64
2021/04/02 07:42:52;;;;;;;4.33;3.70;;;;;;;6.65;64.18;101596.47;5042141;28;20207;-64
2021/04/02 07:45:21;;;;;;;6.50;3.50;;;;;;;6.68;63.82;101597.25;5046033;28;20671;-64
2021/04/02 07:47:52;;;;;;;4.77;3.60;;;;;;;6.73;64.12;101603.28;5041466;28;20198;-64
2021/04/02 07:50:38;;;;;;;5.73;4.87;;;;;;;6.78;64.13;101598.72;5044868;28;20201;-63
2021/04/02 07:53:04;;;;;;;6.30;5.23;;;;;;;6.81;63.69;101595.94;5044432;28;20205;-64
2021/04/02 07:55:30;;;;;;;6.77;5.23;;;;;;;6.83;63.70;101596.75;5043884;28;20718;-64
2021/04/02 07:58:00;;;;;;;7.20;5.63;;;;;;;6.88;63.60;101589.53;5045117;28;20586;-64
2021/04/02 08:00:29;;;;;;;7.60;5.93;;;;;;;6.92;63.08;101591.19;5043475;28;20267;-64
2021/04/02 08:03:10;;;;;;;6.23;5.00;;;;;;;6.99;63.31;101585.69;5044865;28;20214;-64
2021/04/02 08:05:37;;;;;;;7.97;5.70;;;;;;;7.04;63.00;101589.88;5045162;28;20209;-64
2021/04/02 08:08:06;;;;;;;8.50;5.90;;;;;;;7.10;62.26;101595.00;5048932;28;20229;-64
2021/04/02 08:10:32;;;;;;;8.97;6.27;;;;;;;7.22;62.87;101591.03;5042796;28;20244;-65
2021/04/02 08:12:59;;;;;;;7.50;5.70;;;;;;;7.32;62.34;101589.81;5047256;28;20671;-63
2021/04/02 08:15:26;;;;;;;9.60;5.87;;;;;;;7.43;62.37;101584.13;5048696;28;20726;-63
2021/04/02 08:17:54;;;;;;;7.07;5.67;;;;;;;7.52;62.50;101587.34;5046100;28;20202;-64
2021/04/02 08:20:22;;;;;;;8.73;6.27;;;;;;;7.56;62.20;101578.34;5044245;28;20620;-63
2021/04/02 08:22:49;;;;;;;19.37;7.33;;;;;;;7.63;61.49;101577.19;5042884;28;20260;-64
2021/04/02 08:25:18;;;;;;;10.80;6.60;;;;;;;7.66;61.30;101579.75;5046002;28;20205;-64
2021/04/02 08:27:45;;;;;;;11.60;6.53;;;;;;;7.73;61.54;101582.16;5048382;28;20206;-64
2021/04/02 08:30:15;;;;;;;9.57;7.60;;;;;;;7.78;62.12;101589.03;5047580;28;20276;-63
2021/04/02 08:32:43;;;;;;;10.83;7.23;;;;;;;7.88;62.10;101586.91;5047183;28;20662;-65
2021/04/02 08:35:11;;;;;;;9.43;6.80;;;;;;;7.93;62.10;101592.88;5044037;28;20239;-65
2021/04/02 08:37:37;;;;;;;10.00;7.60;;;;;;;7.97;61.80;101586.56;5048532;28;20210;-64
2021/04/02 08:40:07;;;;;;;9.53;7.43;;;;;;;7.99;61.68;101587.38;5048025;28;20216;-64
2021/04/02 08:42:33;;;;;;;10.23;7.60;;;;;;;8.03;61.80;101583.69;5045171;28;20202;-64
2021/04/02 08:45:06;;;;;;;9.50;7.97;;;;;;;8.09;61.43;101587.88;5049095;28;20201;-64
2021/04/02 08:47:37;;;;;;;11.17;8.27;;;;;;;8.13;62.41;101590.34;5048931;28;20212;-61
2021/04/02 08:50:05;;;;;;;9.80;7.90;;;;;;;8.19;61.94;101583.94;5043219;28;20201;-64
2021/04/02 08:52:32;;;;;;;10.20;7.93;;;;;;;8.24;62.00;101582.00;5062014;22;20229;-64
2021/04/02 08:55:00;;;;;;;10.03;7.77;;;;;;;8.28;61.70;101575.63;5033298;28;20783;-63
2021/04/02 08:57:28;;;;;;;8.77;7.60;;;;;;;8.32;61.64;101575.47;5032664;28;20214;-64
2021/04/02 08:59:54;;;;;;;9.73;7.40;;;;;;;8.37;61.75;101580.63;5034381;28;20202;-63
2021/04/02 09:02:21;;;;;;;9.97;7.70;;;;;;;8.39;61.60;101570.81;5019856;28;20237;-64
2021/04/02 09:04:49;;;;;;;8.03;6.60;;;;;;;8.43;61.75;101572.38;5014711;28;20202;-64
2021/04/02 09:07:16;;;;;;;10.00;7.23;;;;;;;8.48;61.71;101572.22;5016181;28;20645;-64
2021/04/02 09:09:45;;;;;;;7.90;7.10;;;;;;;8.53;62.66;101567.59;5013614;28;20210;-64
2021/04/02 09:12:14;;;;;;;8.47;6.37;;;;;;;8.57;62.05;101577.16;5013476;28;20223;-64
2021/04/02 09:14:43;;;;;;;8.03;6.30;;;;;;;8.59;62.12;101572.66;5015553;28;20210;-64
2021/04/02 09:17:12;;;;;;;6.53;4.93;;;;;;;8.62;61.17;101572.53;5013658;28;20223;-64
2021/04/02 09:19:39;;;;;;;5.03;4.53;;;;;;;8.64;61.16;101566.22;5010646;28;20290;-64
2021/04/02 09:22:06;;;;;;;7.07;5.57;;;;;;;8.62;61.12;101562.75;5010053;28;20646;-64
2021/04/02 09:24:34;;;;;;;7.17;5.37;;;;;;;8.63;60.34;101567.16;5010073;28;20664;-64
2021/04/02 09:27:06;;;;;;;6.53;5.20;;;;;;;8.64;60.43;101562.69;5011968;28;20198;-63
2021/04/02 09:29:32;;;;;;;6.00;4.80;;;;;;;8.61;59.59;101560.16;5006330;28;20221;-62
2021/04/02 09:31:58;;;;;;;7.77;5.57;;;;;;;8.60;59.82;101563.75;5013568;28;20231;-64
2021/04/02 09:34:25;;;;;;;6.50;5.23;;;;;;;8.60;59.48;101558.44;5013677;28;20203;-64
2021/04/02 09:36:51;;;;;;;7.33;5.40;;;;;;;8.61;59.80;101561.03;5017483;28;20218;-64
2021/04/02 09:39:22;;;;;;;6.80;5.20;;;;;;;8.61;60.16;101550.41;5010327;28;20207;-64
2021/04/02 09:41:51;;;;;;;9.53;5.03;;;;;;;8.62;60.63;101545.97;5011816;28;20223;-63
2021/04/02 09:44:19;;;;;;;6.90;5.00;;;;;;;8.59;59.98;101544.31;5009087;28;20202;-62
2021/04/02 09:46:47;;;;;;;6.23;4.80;;;;;;;8.59;60.75;101535.50;5009179;28;20297;-65
2021/04/02 09:49:15;;;;;;;7.67;5.00;;;;;;;8.62;61.42;101536.22;5010384;28;20203;-64
2021/04/02 09:51:45;;;;;;;8.83;5.20;;;;;;;8.59;61.05;101530.19;5018497;28;20242;-63
2021/04/02 09:54:12;;;;;;;7.90;5.43;;;;;;;8.57;60.38;101534.69;5029806;28;20213;-63
2021/04/02 09:56:40;;;;;;;8.20;5.70;;;;;;;8.59;60.85;101522.22;5029155;28;20690;-63
2021/04/02 09:59:07;;;;;;;6.87;5.07;;;;;;;8.63;61.60;101527.31;5030846;28;20256;-63
2021/04/02 10:01:35;;;;;;;6.57;4.93;;;;;;;8.69;61.24;101528.88;5031619;28;20233;-62
2021/04/02 10:04:01;;;;;;;7.53;5.07;;;;;;;8.73;60.35;101533.13;5035846;28;20210;-65
2021/04/02 10:06:27;;;;;;;7.13;5.07;;;;;;;8.78;60.26;101522.31;5037775;28;20297;-63
2021/04/02 10:08:54;;;;;;;7.17;5.23;;;;;;;8.87;60.07;101525.44;5042358;28;20754;-63
2021/04/02 10:11:20;;;;;;;9.00;5.30;;;;;;;8.95;59.73;101525.13;5039234;28;20222;-63
2021/04/02 10:13:47;;;;;;;6.70;5.00;;;;;;;8.98;59.23;101523.19;5036694;28;20209;-63
2021/04/02 10:16:13;;;;;;;7.10;5.03;;;;;;;8.98;58.98;101528.50;5034352;28;20222;-63
2021/04/02 10:18:39;;;;;;;5.47;4.53;;;;;;;8.97;59.67;101526.75;5036635;28;20213;-64
2021/04/02 10:21:07;;;;;;;6.83;4.70;;;;;;;8.95;58.60;101528.66;5033461;28;20253;-63
2021/04/02 10:23:34;;;;;;;5.50;3.97;;;;;;;8.94;58.96;101532.22;5032143;28;20221;-63
2021/04/02 10:26:00;;;;;;;6.23;3.60;;;;;;;8.91;59.35;101528.84;5034426;28;20257;-62
2021/04/02 10:28:27;;;;;;;6.23;4.50;;;;;;;8.86;59.28;101525.50;5034630;28;20206;-63
2021/04/02 10:30:54;;;;;;;6.97;3.93;;;;;;;8.82;58.98;101515.94;5035784;28;20225;-63
2021/04/02 10:33:20;;;;;;;6.67;4.40;;;;;;;8.80;59.19;101516.00;5034243;28;20573;-63
2021/04/02 10:35:46;;;;;;;6.33;4.17;;;;;;;8.78;59.51;101498.41;5034593;28;20226;-62
2021/04/02 10:38:13;;;;;;;5.43;4.10;;;;;;;8.77;59.66;101508.19;5033586;28;20211;-63
2021/04/02 10:40:39;;;;;;;7.90;4.20;;;;;;;8.75;59.32;101504.72;5038479;28;20210;-63
2021/04/02 10:43:06;;;;;;;7.07;4.13;;;;;;;8.74;58.95;101508.31;5034700;28;20298;-62
2021/04/02 10:45:33;;;;;;;8.37;4.70;;;;;;;8.76;58.99;101497.63;5040255;28;20581;-64
2021/04/02 10:48:00;;;;;;;6.53;4.30;;;;;;;8.76;58.76;101490.50;5033340;28;20205;-63
2021/04/02 10:50:28;;;;;;;9.37;4.53;;;;;;;8.75;58.64;101487.91;5039451;28;20206;-63
2021/04/02 10:52:54;;;;;;;6.83;4.93;;;;;;;8.73;58.75;101487.97;5037960;28;20586;-60
2021/04/02 10:55:21;;;;;;;11.00;5.73;;;;;;;8.78;59.20;101504.56;5038827;28;20198;-64
2021/04/02 10:57:47;;;;;;;13.40;6.77;;;;;;;8.82;58.87;101510.63;5032497;28;20221;-62
2021/04/02 11:00:16;;;;;;;10.47;6.57;;;;;;;8.83;59.70;101513.22;5034922;28;20202;-64
2021/04/02 11:02:42;;;;;;;13.00;6.37;;;;;;;8.84;58.97;101508.75;5033506;28;20241;-64
2021/04/02 11:05:11;;;;;;;9.73;6.50;;;;;;;8.85;58.73;101511.34;5039470;28;20201;-64
2021/04/02 11:07:37;;;;;;;9.27;6.50;;;;;;;8.87;58.66;101517.47;5036378;28;20207;-64
2021/04/02 11:10:04;;;;;;;8.83;6.27;;;;;;;8.90;59.15;101527.97;5037297;28;20581;-63
2021/04/02 11:12:30;;;;;;;9.13;5.30;;;;;;;8.93;59.27;101529.63;5033961;28;20771;-64
2021/04/02 11:14:57;;;;;;;9.27;5.67;;;;;;;8.91;58.26;101537.66;5039212;28;20214;-63
2021/04/02 11:17:23;;;;;;;5.60;4.17;;;;;;;8.87;57.86;101546.69;5031993;28;20275;-62
2021/04/02 11:19:50;;;;;;;10.20;4.57;;;;;;;8.78;58.60;101541.75;5035013;28;20301;-64
2021/04/02 11:22:17;;;;;;;8.17;3.47;;;;;;;8.74;57.93;101545.47;5034512;28;20222;-64
2021/04/02 11:24:43;;;;;;;7.37;3.67;;;;;;;8.70;58.05;101549.19;5038713;28;20220;-63
2021/04/02 11:27:10;;;;;;;5.87;3.40;;;;;;;8.62;58.00;101544.19;5040484;28;20208;-65
2021/04/02 11:29:37;;;;;;;5.33;3.30;;;;;;;8.54;57.76;101534.81;5041490;28;20691;-65
2021/04/02 11:32:03;;;;;;;7.10;4.23;;;;;;;8.49;57.50;101539.44;5044118;28;20672;-64
2021/04/02 11:34:31;;;;;;;5.27;4.40;;;;;;;8.52;57.44;101526.03;5041130;28;20256;-64
2021/04/02 11:36:57;;;;;;;7.70;3.63;;;;;;;8.54;57.43;101524.19;5038437;28;20374;-64